Time;durP1;ratioP1;P1;durP2;ratioP2;P2;SDS_P1;SDS_P2;PMS_P1;PMS_P2;Temp;Humidity;BMP_temperature;BMP_pressure;BME280_temperature;BME280_humidity;BME280_pressure;Samples;Min_cycle;Max_cycle;Signal;HPM_P1;HPM_P2
2022/04/02 00:02:02;;;;;;;4.95;2.42;;;2.90;59.30;;;;;;4978543;28;20038;-82
2022/04/02 00:04:28;;;;;;;4.67;2.67;;;2.90;59.40;;;;;;4961582;28;20449;-82
2022/04/02 00:06:54;;;;;;;3.58;2.08;;;2.90;59.50;;;;;;4972551;28;20034;-82
2022/04/02 00:09:21;;;;;;;3.93;2.00;;;3.00;59.70;;;;;;4996326;28;20071;-82
2022/04/02 00:11:47;;;;;;;3.50;2.13;;;3.00;59.70;;;;;;4977336;28;20433;-81
2022/04/02 00:14:13;;;;;;;3.65;2.20;;;2.90;59.70;;;;;;4977999;28;20077;-82
2022/04/02 00:16:40;;;;;;;3.33;1.97;;;3.20;59.80;;;;;;4977730;28;20042;-82
2022/04/02 00:19:06;;;;;;;4.30;2.23;;;2.90;59.60;;;;;;4977639;28;20502;-81
2022/04/02 00:21:35;;;;;;;5.33;2.53;;;2.90;59.60;;;;;;4975457;28;20039;-82
2022/04/02 00:24:01;;;;;;;3.50;2.00;;;2.70;59.50;;;;;;4974620;28;20388;-81
2022/04/02 00:26:27;;;;;;;4.23;2.30;;;2.80;59.60;;;;;;4977329;28;20038;-81
2022/04/02 00:28:53;;;;;;;3.60;2.10;;;2.80;59.60;;;;;;4978589;28;20054;-83
2022/04/02 00:31:20;;;;;;;4.93;2.50;;;2.80;59.50;;;;;;4978599;28;20138;-81
2022/04/02 00:33:47;;;;;;;3.60;2.10;;;2.80;59.50;;;;;;4989595;28;20049;-81
2022/04/02 00:36:15;;;;;;;4.20;2.22;;;2.90;59.60;;;;;;4959477;28;20069;-82
2022/04/02 00:38:42;;;;;;;4.53;2.50;;;3.20;59.70;;;;;;4990268;28;20084;-81
2022/04/02 00:41:09;;;;;;;5.10;2.50;;;2.90;59.50;;;;;;4976525;28;20038;-81
2022/04/02 00:43:53;;;;;;;3.43;2.33;;;2.90;59.50;;;;;;4969241;28;20050;-82
2022/04/02 00:46:18;;;;;;;3.83;2.10;;;2.80;59.50;;;;;;4975052;28;20058;-81
2022/04/02 00:48:44;;;;;;;2.97;1.83;;;3.00;59.70;;;;;;4984008;28;20173;-81
2022/04/02 00:51:17;;;;;;;4.57;2.37;;;2.90;59.70;;;;;;4976026;28;20383;-81
2022/04/02 00:53:47;;;;;;;5.13;2.50;;;2.70;59.70;;;;;;4972187;28;20364;-81
2022/04/02 00:56:14;;;;;;;5.10;2.10;;;3.10;60.00;;;;;;4976695;28;20042;-81
2022/04/02 00:58:40;;;;;;;5.13;2.43;;;3.00;60.00;;;;;;4983602;28;20057;-83
2022/04/02 01:01:06;;;;;;;3.80;2.07;;;2.80;59.90;;;;;;4978243;28;20129;-82
2022/04/02 01:03:35;;;;;;;3.60;2.27;;;3.00;60.00;;;;;;4958497;28;20042;-82
2022/04/02 01:06:01;;;;;;;3.67;2.28;;;2.80;60.00;;;;;;4977450;28;20054;-82
2022/04/02 01:08:27;;;;;;;5.17;2.30;;;2.90;60.00;;;;;;4958657;28;20073;-82
2022/04/02 01:10:56;;;;;;;5.75;1.98;;;2.80;59.90;;;;;;4975902;28;20043;-82
2022/04/02 01:13:22;;;;;;;3.75;2.20;;;3.30;60.30;;;;;;4966908;28;20046;-82
2022/04/02 01:15:48;;;;;;;3.40;1.83;;;3.00;60.10;;;;;;4970619;28;20046;-81
2022/04/02 01:18:14;;;;;;;3.73;2.07;;;2.90;60.00;;;;;;4960150;28;20081;-81
2022/04/02 01:20:40;;;;;;;4.40;2.37;;;3.20;60.20;;;;;;4969923;28;20047;-82
2022/04/02 01:23:07;;;;;;;5.17;2.30;;;2.90;60.00;;;;;;4984552;28;20466;-82
2022/04/02 01:25:33;;;;;;;4.30;2.23;;;2.80;60.00;;;;;;4968874;28;20042;-81
2022/04/02 01:28:02;;;;;;;4.33;2.30;;;2.80;59.90;;;;;;4960279;28;20100;-82
2022/04/02 01:30:29;;;;;;;3.13;2.13;;;2.90;59.80;;;;;;4973610;28;20046;-80
2022/04/02 01:32:55;;;;;;;4.13;2.70;;;2.80;59.60;;;;;;4976878;28;20081;-81
2022/04/02 01:35:21;;;;;;;3.23;1.97;;;3.00;59.60;;;;;;4958280;28;20070;-82
2022/04/02 01:38:00;;;;;;;3.33;2.30;;;2.80;59.40;;;;;;4971830;28;20038;-81
2022/04/02 01:40:46;;;;;;;8.20;3.27;;;2.70;59.40;;;;;;4961347;28;20062;-82
2022/04/02 01:43:11;;;;;;;3.50;2.20;;;2.70;59.20;;;;;;4959313;28;20343;-81
2022/04/02 01:45:40;;;;;;;5.40;2.53;;;2.90;59.40;;;;;;4961196;28;20050;-81
2022/04/02 01:48:06;;;;;;;4.50;2.03;;;3.00;59.30;;;;;;4975363;28;20521;-81
2022/04/02 01:50:32;;;;;;;4.23;2.17;;;2.70;59.20;;;;;;4976054;28;20042;-82
2022/04/02 01:52:58;;;;;;;4.33;2.10;;;2.60;59.30;;;;;;4955302;28;20046;-81
2022/04/02 01:55:24;;;;;;;4.83;2.83;;;3.00;59.70;;;;;;5015476;28;20022;-83
2022/04/02 01:57:49;;;;;;;4.67;2.73;;;3.00;59.90;;;;;;4990239;28;20081;-82
2022/04/02 02:00:21;;;;;;;5.10;2.73;;;2.60;59.50;;;;;;4977500;28;20538;-81
2022/04/02 02:02:53;;;;;;;4.03;2.10;;;2.60;59.50;;;;;;4982861;28;20039;-81
2022/04/02 02:05:21;;;;;;;6.03;2.33;;;2.50;59.40;;;;;;4975149;28;20122;-82
2022/04/02 02:07:50;;;;;;;3.63;2.20;;;2.50;59.50;;;;;;4947940;28;20541;-81
2022/04/02 02:10:18;;;;;;;3.20;2.10;;;2.60;59.60;;;;;;4990620;28;20051;-82
2022/04/02 02:12:44;;;;;;;4.20;2.10;;;2.50;59.70;;;;;;4958485;28;20038;-82
2022/04/02 02:15:16;;;;;;;5.17;2.70;;;2.80;60.00;;;;;;4975574;28;20051;-81
2022/04/02 02:17:46;;;;;;;3.57;2.30;;;2.50;59.80;;;;;;4977039;28;20055;-81
2022/04/02 02:20:12;;;;;;;2.77;1.90;;;2.50;59.70;;;;;;4959772;28;20042;-82
2022/04/02 02:22:39;;;;;;;4.27;2.20;;;2.40;59.80;;;;;;4976484;28;20101;-82
2022/04/02 02:25:07;;;;;;;4.63;2.03;;;2.90;60.20;;;;;;4958736;28;20498;-81
2022/04/02 02:27:33;;;;;;;4.80;2.60;;;2.40;59.60;;;;;;4977170;28;20072;-82
2022/04/02 02:29:58;;;;;;;4.77;2.63;;;2.40;59.60;;;;;;4957980;28;20046;-81
2022/04/02 02:32:25;;;;;;;4.23;2.20;;;2.40;59.50;;;;;;4958224;28;20082;-82
2022/04/02 02:37:37;;;;;;;4.97;2.30;;;2.30;59.20;;;;;;4973299;28;20145;-83
2022/04/02 02:40:04;;;;;;;4.97;2.57;;;2.40;59.20;;;;;;4972097;28;20065;-83
2022/04/02 02:42:33;;;;;;;3.90;2.17;;;2.20;59.30;;;;;;4978763;28;20088;-83
2022/04/02 02:45:01;;;;;;;3.40;1.97;;;2.20;59.50;;;;;;4989040;28;20047;-85
2022/04/02 02:47:26;;;;;;;3.87;2.10;;;2.60;59.80;;;;;;4962104;28;20089;-83
2022/04/02 02:49:53;;;;;;;3.93;2.30;;;2.40;59.80;;;;;;4954301;28;20042;-83
2022/04/02 02:52:24;;;;;;;4.00;2.10;;;2.30;59.80;;;;;;4975710;28;20039;-83
2022/04/02 02:54:53;;;;;;;3.67;1.97;;;2.20;59.90;;;;;;4963105;28;20352;-82
2022/04/02 02:57:18;;;;;;;5.57;2.50;;;2.00;59.90;;;;;;4979446;28;20053;-82
2022/04/02 02:59:44;;;;;;;4.93;2.33;;;2.20;60.20;;;;;;4973588;28;20091;-80
2022/04/02 03:02:11;;;;;;;3.37;1.93;;;2.60;60.40;;;;;;4979371;28;20046;-82
2022/04/02 03:04:37;;;;;;;3.10;2.10;;;2.60;60.50;;;;;;4973122;28;20495;-82
2022/04/02 03:07:05;;;;;;;4.53;2.57;;;2.20;60.30;;;;;;4981819;28;20501;-82
2022/04/02 03:09:31;;;;;;;4.73;2.30;;;2.20;60.30;;;;;;4984238;28;20050;-82
2022/04/02 03:12:00;;;;;;;4.63;2.70;;;2.40;60.40;;;;;;4961621;28;20478;-82
2022/04/02 03:14:25;;;;;;;3.50;2.03;;;2.60;60.60;;;;;;4984524;28;20074;-82
2022/04/02 03:16:51;;;;;;;4.50;2.47;;;2.20;60.40;;;;;;4991366;28;20042;-82
2022/04/02 03:19:17;;;;;;;4.57;2.30;;;2.20;60.50;;;;;;4946025;28;20066;-81
2022/04/02 03:22:03;;;;;;;3.07;1.93;;;2.30;60.50;;;;;;4960723;28;20410;-81
2022/04/02 03:24:34;;;;;;;6.20;2.37;;;2.20;60.40;;;;;;4974728;28;20393;-81
2022/04/02 03:27:05;;;;;;;4.33;2.00;;;2.20;60.40;;;;;;4975589;28;20038;-81
2022/04/02 03:29:30;;;;;;;5.80;2.40;;;2.20;60.30;;;;;;4959819;28;20054;-81
2022/04/02 03:31:56;;;;;;;4.37;2.07;;;2.20;60.40;;;;;;4979572;28;20129;-81
2022/04/02 03:34:22;;;;;;;4.20;2.03;;;2.30;60.60;;;;;;4959673;28;20442;-81
2022/04/02 03:36:47;;;;;;;3.80;2.13;;;2.20;60.70;;;;;;4990607;28;20038;-82
2022/04/02 03:39:13;;;;;;;3.80;2.20;;;2.40;60.80;;;;;;4967756;28;20046;-82
2022/04/02 03:41:41;;;;;;;5.23;2.33;;;2.20;60.70;;;;;;4975865;28;20505;-82
2022/04/02 03:44:07;;;;;;;4.63;2.20;;;2.20;60.70;;;;;;4978385;28;20501;-82
2022/04/02 03:49:21;;;;;;;4.53;2.10;;;2.20;60.70;;;;;;4996136;28;20042;-82
2022/04/02 03:51:47;;;;;;;4.23;2.43;;;2.60;61.00;;;;;;4981327;28;20506;-82
2022/04/02 03:54:12;;;;;;;3.93;1.93;;;2.50;61.00;;;;;;4972225;28;20086;-82
2022/04/02 03:56:38;;;;;;;6.37;2.30;;;2.40;60.80;;;;;;4980189;28;20497;-82
2022/04/02 03:59:04;;;;;;;4.90;2.17;;;2.20;60.60;;;;;;4993877;28;20049;-82
2022/04/02 04:01:32;;;;;;;5.23;2.50;;;2.30;60.50;;;;;;4960552;28;20406;-82
2022/04/02 04:04:00;;;;;;;3.83;2.10;;;2.30;60.60;;;;;;4995541;28;20537;-82
2022/04/02 04:06:26;;;;;;;3.97;1.80;;;2.20;60.60;;;;;;4966893;28;20153;-82
2022/04/02 04:08:52;;;;;;;5.13;2.43;;;2.50;60.90;;;;;;4957545;28;20116;-81
2022/04/02 04:11:20;;;;;;;4.53;2.13;;;2.50;61.00;;;;;;4968428;28;20556;-81
2022/04/02 04:13:46;;;;;;;5.17;2.23;;;2.10;60.70;;;;;;4989160;28;20046;-82
2022/04/02 04:16:14;;;;;;;5.63;2.50;;;2.30;60.50;;;;;;4990124;28;20043;-82
2022/04/02 04:18:42;;;;;;;3.00;1.90;;;1.90;60.20;;;;;;4969860;28;20084;-82
2022/04/02 04:21:08;;;;;;;4.30;1.97;;;2.40;60.50;;;;;;4977899;28;20046;-82
2022/04/02 04:23:34;;;;;;;3.37;2.10;;;2.30;60.70;;;;;;4976172;28;20379;-82
2022/04/02 04:26:01;;;;;;;3.97;1.90;;;2.30;60.80;;;;;;4972857;28;20153;-82
2022/04/02 04:28:29;;;;;;;4.37;2.30;;;2.00;60.80;;;;;;4978013;28;20066;-82
2022/04/02 04:30:55;;;;;;;3.03;1.73;;;2.00;60.80;;;;;;4977096;28;20728;-82
2022/04/02 04:33:20;;;;;;;3.63;1.63;;;2.10;61.00;;;;;;4962562;28;20038;-82
2022/04/02 04:35:46;;;;;;;5.40;2.33;;;2.00;60.80;;;;;;4977881;28;20046;-82
2022/04/02 04:38:15;;;;;;;5.03;2.13;;;2.10;61.40;;;;;;4982577;28;20069;-82
2022/04/02 04:40:40;;;;;;;4.40;1.93;;;2.00;61.00;;;;;;4961139;28;20042;-82
2022/04/02 04:43:07;;;;;;;3.73;1.90;;;2.50;61.40;;;;;;4977133;28;20065;-82
2022/04/02 04:45:33;;;;;;;3.57;1.90;;;2.40;61.30;;;;;;4990807;28;20042;-82
2022/04/02 04:47:59;;;;;;;3.70;2.20;;;2.40;61.40;;;;;;4974447;28;20161;-82
2022/04/02 04:50:26;;;;;;;7.17;2.53;;;2.50;61.40;;;;;;4976325;28;20046;-82
2022/04/02 04:52:55;;;;;;;4.13;2.27;;;2.10;61.10;;;;;;4959741;28;20047;-81
2022/04/02 04:55:21;;;;;;;3.53;1.83;;;2.40;61.40;;;;;;4975727;28;20045;-81
2022/04/02 04:57:50;;;;;;;5.47;2.40;;;2.40;61.80;;;;;;4961204;28;20044;-82
2022/04/02 05:00:17;;;;;;;3.43;1.70;;;2.50;61.50;;;;;;4975722;28;20376;-82
2022/04/02 05:02:45;;;;;;;3.67;1.93;;;2.00;61.20;;;;;;4964876;28;20414;-82
2022/04/02 05:05:14;;;;;;;3.83;2.13;;;2.10;61.30;;;;;;4955912;28;20378;-82
2022/04/02 05:07:43;;;;;;;4.43;1.93;;;2.10;61.20;;;;;;4992021;28;20045;-82
2022/04/02 05:10:10;;;;;;;4.47;2.20;;;2.40;61.40;;;;;;4974670;28;20062;-82
2022/04/02 05:12:36;;;;;;;4.17;2.33;;;2.10;61.30;;;;;;4955437;28;20121;-81
2022/04/02 05:15:08;;;;;;;6.47;2.27;;;2.10;61.30;;;;;;4977709;28;20049;-82
2022/04/02 05:17:35;;;;;;;4.00;1.73;;;2.20;61.30;;;;;;4975798;28;20168;-81
2022/04/02 05:20:10;;;;;;;3.37;2.00;;;2.10;61.30;;;;;;4971726;28;20039;-82
2022/04/02 05:22:37;;;;;;;3.03;1.97;;;2.10;61.30;;;;;;4968030;28;20045;-82
2022/04/02 05:25:03;;;;;;;5.33;2.03;;;2.40;61.40;;;;;;4976517;28;20057;-83
2022/04/02 05:27:29;;;;;;;5.83;2.23;;;2.10;61.20;;;;;;4990370;28;20046;-82
2022/04/02 05:29:57;;;;;;;4.20;2.40;;;2.20;61.30;;;;;;4960967;28;20109;-82
2022/04/02 05:32:23;;;;;;;4.40;2.23;;;2.20;61.30;;;;;;4969469;28;20039;-82
2022/04/02 05:34:48;;;;;;;4.43;2.03;;;2.10;61.30;;;;;;4977464;28;20054;-82
2022/04/02 05:37:23;;;;;;;3.47;2.00;;;2.20;61.40;;;;;;4993091;28;20095;-82
2022/04/02 05:39:49;;;;;;;;;;;1.80;61.20;;;;;;4994502;28;20367;-83
2022/04/02 05:42:15;;;;;;;3.83;2.03;;;2.30;61.50;;;;;;4967126;28;19925;-83
2022/04/02 05:44:41;;;;;;;4.57;2.63;;;2.00;61.40;;;;;;4958087;28;20398;-83
2022/04/02 05:47:07;;;;;;;3.90;2.20;;;2.00;61.50;;;;;;4954745;28;20513;-82
2022/04/02 05:49:38;;;;;;;3.47;2.10;;;2.00;61.40;;;;;;4974270;28;20050;-83
2022/04/02 05:52:07;;;;;;;4.13;2.70;;;2.40;61.70;;;;;;4975754;28;20035;-83
2022/04/02 05:54:34;;;;;;;6.57;3.03;;;2.00;61.50;;;;;;4973014;28;20404;-82
2022/04/02 05:57:00;;;;;;;6.20;3.67;;;2.20;61.70;;;;;;4958508;28;20064;-81
2022/04/02 05:59:28;;;;;;;6.20;3.67;;;2.20;61.60;;;;;;4976962;28;20105;-82
2022/04/02 06:01:56;;;;;;;4.87;2.40;;;2.30;61.70;;;;;;4999354;28;20050;-81
2022/04/02 06:04:28;;;;;;;5.23;2.10;;;2.30;61.80;;;;;;4986127;28;20090;-82
2022/04/02 06:06:54;;;;;;;5.27;2.37;;;2.00;61.60;;;;;;4986842;28;20076;-83
2022/04/02 06:09:25;;;;;;;4.53;2.00;;;2.00;61.80;;;;;;4966758;28;20065;-83
2022/04/02 06:11:51;;;;;;;7.93;2.53;;;2.00;61.80;;;;;;4980439;28;20073;-82
2022/04/02 06:14:17;;;;;;;5.60;2.70;;;2.00;61.90;;;;;;4976475;28;20085;-83
2022/04/02 06:16:43;;;;;;;6.57;2.20;;;2.00;62.10;;;;;;4976185;28;20050;-83
2022/04/02 06:19:09;;;;;;;7.53;3.17;;;2.30;62.40;;;;;;4956529;28;20125;-81
2022/04/02 06:21:35;;;;;;;6.43;2.90;;;2.10;62.30;;;;;;4992612;28;20118;-81
2022/04/02 06:24:04;;;;;;;5.83;4.03;;;2.20;62.50;;;;;;4982282;28;20133;-82
2022/04/02 06:26:30;;;;;;;5.47;3.10;;;2.50;62.70;;;;;;4947452;28;20082;-82
2022/04/02 06:28:55;;;;;;;4.90;2.57;;;2.60;62.60;;;;;;4980598;28;20073;-81
2022/04/02 06:31:21;;;;;;;5.97;2.33;;;2.40;62.50;;;;;;4975578;28;20050;-83
2022/04/02 06:33:47;;;;;;;4.90;1.97;;;2.20;62.50;;;;;;4962159;28;20399;-83
2022/04/02 06:36:14;;;;;;;5.53;1.97;;;2.60;62.50;;;;;;4970952;28;20100;-84
2022/04/02 06:38:40;;;;;;;4.90;2.00;;;2.70;62.30;;;;;;4976003;28;20042;-85
2022/04/02 06:41:05;;;;;;;7.13;2.83;;;3.30;63.00;;;;;;4973136;28;20053;-83
2022/04/02 06:43:31;;;;;;;4.88;2.33;;;3.30;62.80;;;;;;4982639;28;20061;-83
2022/04/02 06:45:59;;;;;;;5.60;2.03;;;3.60;62.70;;;;;;4972328;28;20057;-87
2022/04/02 06:48:25;;;;;;;4.47;1.85;;;3.90;62.20;;;;;;4958934;28;20068;-85
2022/04/02 06:50:53;;;;;;;5.82;2.42;;;4.00;61.50;;;;;;4975851;28;20559;-84
2022/04/02 06:53:19;;;;;;;5.07;2.30;;;3.90;60.90;;;;;;4986932;28;20042;-84
2022/04/02 06:55:46;;;;;;;5.82;2.40;;;3.80;60.60;;;;;;4969743;28;20088;-83
2022/04/02 06:58:32;;;;;;;5.28;2.03;;;4.20;60.80;;;;;;4971285;28;20486;-84
2022/04/02 07:00:58;;;;;;;5.07;1.77;;;4.50;60.60;;;;;;4957774;28;20054;-84
2022/04/02 07:03:24;;;;;;;4.05;2.33;;;4.40;60.20;;;;;;4972967;28;20042;-84
2022/04/02 07:05:50;;;;;;;3.35;1.80;;;4.70;60.00;;;;;;4971315;28;20039;-84
2022/04/02 07:08:16;;;;;;;4.43;2.10;;;5.10;60.00;;;;;;4975060;28;20129;-85
2022/04/02 07:10:42;;;;;;;4.93;2.42;;;5.10;59.40;;;;;;4993507;28;20502;-84
2022/04/02 07:13:07;;;;;;;6.00;2.30;;;4.90;59.40;;;;;;4988918;28;20038;-85
2022/04/02 07:15:33;;;;;;;4.10;2.05;;;5.30;59.40;;;;;;4986302;28;20457;-85
2022/04/02 07:18:07;;;;;;;7.07;2.67;;;5.30;59.40;;;;;;4961451;28;20526;-84
2022/04/02 07:20:37;;;;;;;3.28;1.77;;;5.10;58.90;;;;;;4961311;28;20046;-84
2022/04/02 07:23:05;;;;;;;3.90;2.05;;;5.10;59.00;;;;;;4974038;28;20066;-84
2022/04/02 07:25:35;;;;;;;6.07;2.38;;;5.20;59.00;;;;;;4957828;28;20054;-84
2022/04/02 07:28:01;;;;;;;4.68;2.22;;;5.20;59.10;;;;;;4977726;28;20117;-84
2022/04/02 07:30:27;;;;;;;5.03;2.33;;;5.30;58.80;;;;;;4962483;28;20096;-84
2022/04/02 07:32:52;;;;;;;4.70;2.15;;;5.80;58.70;;;;;;4980127;28;20391;-84
2022/04/02 07:35:18;;;;;;;3.97;1.65;;;5.80;58.40;;;;;;4975686;28;20092;-84
2022/04/02 07:38:09;;;;;;;3.47;1.40;;;5.60;57.80;;;;;;4991490;28;20042;-83
2022/04/02 07:40:50;;;;;;;6.22;2.13;;;5.60;57.20;;;;;;4977489;28;20050;-85
2022/04/02 07:43:29;;;;;;;4.75;2.25;;;5.70;57.00;;;;;;4968695;28;20440;-84
2022/04/02 07:46:12;;;;;;;4.70;2.08;;;5.70;56.60;;;;;;4960148;28;20387;-85
2022/04/02 07:48:41;;;;;;;4.20;2.03;;;6.00;56.90;;;;;;4958863;28;20074;-85
2022/04/02 07:51:13;;;;;;;4.80;2.20;;;6.10;56.90;;;;;;4964977;28;20097;-84
2022/04/02 07:53:47;;;;;;;4.45;2.05;;;6.10;56.70;;;;;;4961225;28;20097;-84
2022/04/02 07:56:15;;;;;;;;;;;6.10;56.40;;;;;;4974180;28;20367;-85
2022/04/02 07:58:47;;;;;;;4.22;1.85;;;6.40;55.40;;;;;;4977697;28;19969;-84
2022/04/02 08:01:16;;;;;;;5.50;2.28;;;6.20;56.20;;;;;;4976529;28;20035;-85
2022/04/02 08:03:44;;;;;;;3.50;1.80;;;5.80;55.80;;;;;;4978042;28;20058;-84
2022/04/02 08:06:11;;;;;;;3.47;1.80;;;5.80;55.70;;;;;;4983685;28;20146;-84
2022/04/02 08:08:45;;;;;;;2.88;1.70;;;6.40;56.30;;;;;;4968212;23;20150;-86
2022/04/02 08:11:12;;;;;;;5.40;2.00;;;6.00;55.80;;;;;;4987138;28;20038;-86
2022/04/02 08:13:50;;;;;;;4.95;2.03;;;6.10;55.80;;;;;;4975208;28;20047;-88
2022/04/02 08:16:52;;;;;;;4.57;1.83;;;6.20;55.80;;;;;;5284001;23;20022;-90
2022/04/02 08:19:42;;;;;;;3.90;1.70;;;6.20;55.50;;;;;;4954759;29;20466;-90
2022/04/02 08:22:24;;;;;;;5.68;1.50;;;6.70;55.50;;;;;;4941740;29;20062;-89
2022/04/02 08:25:03;;;;;;;3.65;1.60;;;6.30;55.30;;;;;;4965344;28;20047;-89
2022/04/02 08:28:15;;;;;;;3.78;2.45;;;6.30;54.70;;;;;;4939490;29;20054;-88
2022/04/02 08:31:40;;;;;;;5.82;2.42;;;6.30;54.50;;;;;;4953840;28;20054;-88
2022/04/02 08:34:27;;;;;;;5.28;2.10;;;6.30;54.80;;;;;;4900688;29;20063;-88
2022/04/02 08:37:08;;;;;;;4.88;1.63;;;6.10;54.70;;;;;;4884790;29;20063;-87
2022/04/02 08:39:59;;;;;;;4.13;1.50;;;6.70;55.70;;;;;;4916120;29;20106;-88
2022/04/02 08:42:35;;;;;;;4.70;1.50;;;5.90;55.30;;;;;;4897333;29;20060;-87
2022/04/02 08:45:08;;;;;;;3.83;1.50;;;5.90;55.50;;;;;;4899164;29;20091;-87
2022/04/02 08:48:19;;;;;;;3.97;1.60;;;5.80;55.70;;;;;;4901005;29;20345;-87
2022/04/02 08:51:18;;;;;;;2.63;1.90;;;5.60;55.40;;;;;;4898293;29;20497;-88
2022/04/02 08:54:28;;;;;;;2.30;1.23;;;6.10;55.90;;;;;;4863330;29;20053;-88
2022/04/02 08:57:21;;;;;;;4.15;1.85;;;6.00;55.70;;;;;;4845367;29;20061;-88
2022/04/02 09:00:07;;;;;;;3.58;1.35;;;5.60;55.70;;;;;;4862115;29;20060;-88
2022/04/02 09:02:50;;;;;;;2.97;1.27;;;5.60;55.70;;;;;;4878877;29;20045;-87
2022/04/02 09:05:41;;;;;;;3.45;1.88;;;5.70;55.70;;;;;;4863563;29;20066;-87
2022/04/02 09:08:59;;;;;;;4.50;1.48;;;5.70;55.80;;;;;;4863321;29;20049;-86
2022/04/02 09:11:50;;;;;;;5.05;1.88;;;5.80;55.60;;;;;;4885293;29;20057;-85
2022/04/02 09:14:49;;;;;;;7.32;1.63;;;5.90;55.90;;;;;;4874530;29;20068;-86
2022/04/02 09:17:38;;;;;;;4.72;1.70;;;6.20;56.00;;;;;;4861672;29;20063;-86
2022/04/02 09:20:41;;;;;;;5.55;2.10;;;6.20;55.20;;;;;;4860212;29;20045;-86
2022/04/02 09:24:04;;;;;;;2.85;1.40;;;6.40;55.30;;;;;;4851495;29;20461;-86
2022/04/02 09:27:08;;;;;;;5.18;1.63;;;6.60;54.60;;;;;;4858982;29;20057;-86
2022/04/02 09:30:12;;;;;;;3.13;1.30;;;6.70;54.40;;;;;;4859031;29;20085;-86
2022/04/02 09:33:06;;;;;;;2.60;1.17;;;6.90;53.60;;;;;;4929818;29;20114;-87
2022/04/02 09:35:38;;;;;;;4.85;1.50;;;7.10;54.00;;;;;;4937504;29;20054;-87
2022/04/02 09:38:47;;;;;;;2.17;1.23;;;7.20;53.90;;;;;;4949448;28;20054;-88
2022/04/02 09:41:16;;;;;;;5.13;3.03;;;7.20;52.30;;;;;;4949120;29;20052;-86
2022/04/02 09:44:05;;;;;;;6.55;3.08;;;7.50;52.20;;;;;;4929758;29;20051;-88
2022/04/02 09:46:55;;;;;;;6.68;1.67;;;7.40;52.50;;;;;;4922057;29;20401;-87
2022/04/02 09:49:49;;;;;;;4.50;1.55;;;7.90;51.50;;;;;;4939429;29;20069;-84
2022/04/02 09:52:21;;;;;;;4.22;1.30;;;8.40;50.40;;;;;;4954136;28;20094;-85
2022/04/02 09:55:06;;;;;;;5.57;1.40;;;8.00;50.00;;;;;;4924991;29;20479;-86
2022/04/02 09:58:04;;;;;;;2.17;1.15;;;8.20;48.60;;;;;;4940152;29;20059;-87
2022/04/02 10:01:03;;;;;;;4.55;1.20;;;8.30;49.30;;;;;;4968977;28;20043;-86
2022/04/02 10:03:57;;;;;;;3.22;1.10;;;8.50;45.00;;;;;;4889649;29;20573;-87
2022/04/02 10:06:38;;;;;;;3.40;1.15;;;8.40;43.20;;;;;;4893050;29;20048;-86
2022/04/02 10:09:08;;;;;;;3.83;1.20;;;8.40;43.60;;;;;;4878994;29;20049;-86
2022/04/02 10:11:47;;;;;;;2.15;0.90;;;8.50;44.60;;;;;;4877561;29;20091;-87
2022/04/02 10:14:18;;;;;;;2.72;0.90;;;8.50;42.70;;;;;;4895664;29;20053;-85
2022/04/02 10:16:50;;;;;;;3.75;1.10;;;8.60;42.90;;;;;;4865132;29;20112;-84
2022/04/02 10:19:17;;;;;;;3.20;1.20;;;8.40;43.60;;;;;;4879687;29;20064;-85
2022/04/02 10:21:48;;;;;;;4.75;1.13;;;8.40;44.90;;;;;;4895137;29;20398;-85
2022/04/02 10:24:23;;;;;;;2.22;0.98;;;8.30;44.10;;;;;;4898660;29;20055;-86
2022/04/02 10:26:58;;;;;;;2.80;1.30;;;8.00;44.40;;;;;;4898145;29;20071;-87
2022/04/02 10:29:53;;;;;;;2.55;1.23;;;8.20;44.10;;;;;;4898298;29;20048;-87
2022/04/02 10:32:43;;;;;;;5.47;1.65;;;8.10;45.20;;;;;;4912692;29;20155;-84
2022/04/02 10:35:11;;;;;;;2.83;1.33;;;8.00;46.20;;;;;;4915476;29;20071;-86
2022/04/02 10:38:04;;;;;;;3.28;1.15;;;7.80;46.00;;;;;;4899657;29;20396;-86
2022/04/02 10:40:46;;;;;;;3.58;1.40;;;7.70;45.40;;;;;;4927842;28;20142;-86
2022/04/02 10:43:23;;;;;;;2.75;1.08;;;7.60;46.60;;;;;;4936666;28;20044;-85
2022/04/02 10:45:49;;;;;;;5.03;1.30;;;7.50;46.30;;;;;;4946581;29;20050;-86
2022/04/02 10:48:26;;;;;;;3.25;1.20;;;7.70;46.80;;;;;;4940521;29;20122;-86
2022/04/02 10:50:55;;;;;;;3.00;1.00;;;7.90;47.40;;;;;;4950142;29;20423;-86
2022/04/02 10:53:22;;;;;;;2.60;0.88;;;7.40;45.90;;;;;;4942953;29;20134;-85
2022/04/02 10:55:58;;;;;;;3.00;1.10;;;8.00;44.70;;;;;;4946567;28;20063;-86
2022/04/02 10:58:24;;;;;;;3.85;1.20;;;8.00;45.20;;;;;;4937580;29;20048;-85
2022/04/02 11:00:56;;;;;;;2.97;1.23;;;7.50;45.20;;;;;;4948726;28;20039;-86
2022/04/02 11:03:39;;;;;;;3.67;1.38;;;8.00;45.00;;;;;;4944116;29;20059;-85
2022/04/02 11:06:06;;;;;;;3.78;1.15;;;7.90;45.50;;;;;;4953031;28;20127;-85
2022/04/02 11:08:32;;;;;;;4.80;1.73;;;7.40;48.40;;;;;;4928428;29;20051;-84
2022/04/02 11:11:24;;;;;;;3.53;1.42;;;7.00;51.80;;;;;;4937603;29;20126;-84
2022/04/02 11:14:02;;;;;;;3.28;1.40;;;6.70;53.20;;;;;;4941851;29;20050;-83
2022/04/02 11:16:40;;;;;;;6.30;1.42;;;6.30;54.10;;;;;;4956717;29;20576;-84
2022/04/02 11:22:09;;;;;;;2.42;1.02;;;5.70;56.20;;;;;;4951490;29;20048;-84
2022/04/02 11:24:59;;;;;;;3.92;1.20;;;5.60;57.00;;;;;;4950887;29;20040;-83
2022/04/02 11:27:28;;;;;;;3.58;1.45;;;5.60;57.10;;;;;;4892814;29;20075;-84
2022/04/02 11:30:02;;;;;;;3.80;1.40;;;5.50;56.80;;;;;;4895151;29;20056;-84
2022/04/02 11:32:34;;;;;;;3.15;1.35;;;5.40;56.60;;;;;;4898774;29;20064;-85
2022/04/02 11:35:00;;;;;;;6.00;1.60;;;5.60;56.50;;;;;;4917306;29;20485;-85
2022/04/02 11:37:31;;;;;;;5.88;1.27;;;5.80;56.10;;;;;;4885969;29;20126;-84
2022/04/02 11:40:04;;;;;;;4.38;1.02;;;5.70;55.40;;;;;;4901729;29;20040;-83
2022/04/02 11:42:38;;;;;;;2.85;1.13;;;5.50;54.80;;;;;;4917501;29;20051;-83
2022/04/02 11:45:11;;;;;;;2.35;1.10;;;5.60;54.60;;;;;;4903405;29;20048;-81
2022/04/02 11:47:39;;;;;;;5.00;1.40;;;5.70;54.70;;;;;;4926972;29;20052;-83
2022/04/02 11:50:08;;;;;;;3.38;1.15;;;5.80;54.50;;;;;;4912382;29;20059;-83
2022/04/02 11:52:52;;;;;;;3.75;1.25;;;5.80;55.00;;;;;;4922060;29;20524;-83
2022/04/02 11:55:19;;;;;;;3.45;1.38;;;6.10;55.00;;;;;;4887635;29;20504;-84
2022/04/02 11:57:57;;;;;;;2.13;1.30;;;6.30;54.20;;;;;;4896351;29;20056;-83
2022/04/02 12:00:31;;;;;;;4.40;1.73;;;6.10;54.10;;;;;;4898583;29;20044;-84
2022/04/02 12:02:57;;;;;;;3.55;1.60;;;6.20;54.60;;;;;;4892145;29;20041;-84
2022/04/02 12:05:50;;;;;;;4.63;1.27;;;6.40;54.60;;;;;;4944441;29;20083;-82
2022/04/02 12:08:30;;;;;;;6.95;1.67;;;6.40;53.10;;;;;;4979702;28;20139;-86
2022/04/02 12:11:00;;;;;;;2.80;1.13;;;6.70;51.90;;;;;;4948011;29;20047;-84
2022/04/02 12:13:26;;;;;;;2.97;1.42;;;7.00;51.60;;;;;;4940312;29;20392;-83
2022/04/02 12:16:13;;;;;;;4.35;1.45;;;7.20;51.70;;;;;;4938026;29;20552;-83
2022/04/02 12:18:53;;;;;;;3.85;1.50;;;6.90;52.20;;;;;;4951474;28;20063;-84
2022/04/02 12:21:34;;;;;;;2.55;1.50;;;7.10;52.00;;;;;;4922428;29;20506;-83
2022/04/02 12:24:02;;;;;;;3.38;1.33;;;7.00;52.10;;;;;;4923681;29;20044;-84
2022/04/02 12:26:28;;;;;;;5.63;1.73;;;7.50;52.50;;;;;;4926307;29;20066;-85
2022/04/02 12:29:04;;;;;;;4.45;1.50;;;7.10;51.90;;;;;;4953361;29;20127;-84
2022/04/02 12:31:34;;;;;;;4.10;1.40;;;7.20;50.90;;;;;;4953861;29;20061;-84
2022/04/02 12:34:00;;;;;;;4.53;1.92;;;7.40;51.50;;;;;;4933228;29;20480;-85
2022/04/02 12:36:35;;;;;;;4.22;1.10;;;7.10;50.80;;;;;;4958837;29;20047;-83
2022/04/02 12:39:10;;;;;;;4.47;1.15;;;7.00;51.20;;;;;;4950269;29;20051;-93
2022/04/02 12:44:20;;;;;;;4.32;1.38;;;6.80;49.60;;;;;;4990918;28;20093;-89
2022/04/02 12:47:06;;;;;;;5.25;1.77;;;6.70;49.90;;;;;;4969042;28;20119;-91
2022/04/02 12:49:37;;;;;;;4.88;1.33;;;7.10;50.70;;;;;;4995689;23;20036;-86
2022/04/02 12:52:16;;;;;;;2.45;1.20;;;6.50;51.40;;;;;;4992309;28;20066;-82
2022/04/02 12:54:50;;;;;;;2.80;1.17;;;6.50;51.90;;;;;;4979132;28;20049;-83
2022/04/02 12:57:19;;;;;;;3.15;1.23;;;6.90;51.70;;;;;;4981693;28;20181;-84
2022/04/02 12:59:59;;;;;;;2.88;1.20;;;6.40;51.40;;;;;;4994701;28;20041;-83
2022/04/02 13:03:03;;;;;;;3.92;1.70;;;6.60;51.40;;;;;;4958060;23;21204;-89
2022/04/02 13:06:00;;;;;;;3.75;1.55;;;6.50;51.10;;;;;;4988133;28;20092;-86
2022/04/02 13:08:34;;;;;;;4.45;1.40;;;6.40;51.20;;;;;;5028543;23;20070;-88
2022/04/02 13:11:13;;;;;;;4.22;1.35;;;6.40;50.80;;;;;;4949319;29;20051;-90
2022/04/02 13:13:45;;;;;;;3.22;1.60;;;6.50;50.50;;;;;;4984346;23;20259;-90
2022/04/02 13:16:42;;;;;;;;;;;;;;;;;;;;;
2022/04/02 13:22:27;;;;;;;3.72;1.15;;;6.40;50.40;;;;;;4987417;23;20059;-90
2022/04/02 13:25:09;;;;;;;3.55;1.20;;;6.40;50.80;;;;;;4975502;28;20070;-85
2022/04/02 13:28:35;;;;;;;4.93;1.30;;;6.40;50.60;;;;;;5025718;23;20459;-89
2022/04/02 13:31:13;;;;;;;3.40;1.17;;;6.50;50.40;;;;;;5031850;23;20595;-88
2022/04/02 13:33:50;;;;;;;3.33;1.30;;;6.30;50.30;;;;;;4996192;28;20052;-91
2022/04/02 13:45:12;;;;;;;3.65;1.10;;;6.80;49.00;;;;;;4981557;28;20047;-82
2022/04/02 13:47:54;;;;;;;3.72;1.55;;;6.80;47.90;;;;;;4988728;28;20142;-88
2022/04/02 13:53:13;;;;;;;5.63;1.20;;;6.80;46.40;;;;;;5180880;23;20103;-86
2022/04/02 13:55:43;;;;;;;4.40;1.35;;;7.10;46.80;;;;;;4918738;28;20690;-86